<?xml version="1.0" encoding="UTF-8" standalone="no" ?>
<gpx xmlns="http://www.topografix.com/GPX/1/1" xmlns:xsi="http://www.w3.org/2001/XMLSchema-instance" xsi:schemaLocation="http://www.topografix.com/GPX/1/1 http://www.topografix.com/GPX/1/1/gpx.xsd" version="1.1" creator="VisuGPX - https://www.visugpx.com">
  <metadata>
    <name>Etang d'Izourt</name>
  </metadata>
  <wpt lat="42.71693" lon="1.48854">
    <ele>1162</ele>
    <name><![CDATA[Parking de Pradière]]></name>
  </wpt>
  <wpt lat="42.713" lon="1.4909">
    <ele>1208</ele>
    <name><![CDATA[Carrefour de la boucle]]></name>
  </wpt>
  <wpt lat="42.69245" lon="1.49894">
    <ele>1664</ele>
    <name><![CDATA[plaque commémorative]]></name>
  </wpt>
  <wpt lat="42.69316" lon="1.49705">
    <ele>1635</ele>
    <name><![CDATA[passage échelle]]></name>
  </wpt>
  <wpt lat="42.71737" lon="1.48777">
    <ele>1157</ele>
    <name><![CDATA[Arrivée même parking]]></name>
  </wpt>
  <trk>
    <name><![CDATA[L’Étang d'Izourt]]></name>
    <trkseg>
      <trkpt lat="42.71693" lon="1.48854">
        <ele>1162</ele>
        <time>2016-07-03T11:52:54+02:00</time>
      </trkpt>
      <trkpt lat="42.7168" lon="1.48864">
        <ele>1164</ele>
        <time>2016-07-03T11:53:09+02:00</time>
      </trkpt>
      <trkpt lat="42.71664" lon="1.48882">
        <ele>1167</ele>
        <time>2016-07-03T11:53:26+02:00</time>
      </trkpt>
      <trkpt lat="42.71649" lon="1.489">
        <ele>1170</ele>
        <time>2016-07-03T11:53:44+02:00</time>
      </trkpt>
      <trkpt lat="42.71634" lon="1.48915">
        <ele>1171</ele>
        <time>2016-07-03T11:54:01+02:00</time>
      </trkpt>
      <trkpt lat="42.71617" lon="1.4893">
        <ele>1176</ele>
        <time>2016-07-03T11:54:21+02:00</time>
      </trkpt>
      <trkpt lat="42.71603" lon="1.4894">
        <ele>1179</ele>
        <time>2016-07-03T11:54:36+02:00</time>
      </trkpt>
      <trkpt lat="42.71584" lon="1.48954">
        <ele>1182</ele>
        <time>2016-07-03T11:54:58+02:00</time>
      </trkpt>
      <trkpt lat="42.71579" lon="1.48959">
        <ele>1184</ele>
        <time>2016-07-03T11:55:03+02:00</time>
      </trkpt>
      <trkpt lat="42.71564" lon="1.48973">
        <ele>1188</ele>
        <time>2016-07-03T11:55:23+02:00</time>
      </trkpt>
      <trkpt lat="42.71548" lon="1.48995">
        <ele>1193</ele>
        <time>2016-07-03T11:55:43+02:00</time>
      </trkpt>
      <trkpt lat="42.71527" lon="1.48992">
        <ele>1188</ele>
        <time>2016-07-03T11:56:09+02:00</time>
      </trkpt>
      <trkpt lat="42.71517" lon="1.48991">
        <ele>1187</ele>
        <time>2016-07-03T11:56:19+02:00</time>
      </trkpt>
      <trkpt lat="42.71503" lon="1.48981">
        <ele>1183</ele>
        <time>2016-07-03T11:56:33+02:00</time>
      </trkpt>
      <trkpt lat="42.7148" lon="1.4898">
        <ele>1184</ele>
        <time>2016-07-03T11:56:58+02:00</time>
      </trkpt>
      <trkpt lat="42.71469" lon="1.48988">
        <ele>1185</ele>
        <time>2016-07-03T11:57:10+02:00</time>
      </trkpt>
      <trkpt lat="42.71449" lon="1.49001">
        <ele>1187</ele>
        <time>2016-07-03T11:57:26+02:00</time>
      </trkpt>
      <trkpt lat="42.71429" lon="1.49009">
        <ele>1190</ele>
        <time>2016-07-03T11:57:50+02:00</time>
      </trkpt>
      <trkpt lat="42.71415" lon="1.49015">
        <ele>1192</ele>
        <time>2016-07-03T11:58:03+02:00</time>
      </trkpt>
      <trkpt lat="42.71397" lon="1.49013">
        <ele>1193</ele>
        <time>2016-07-03T11:58:19+02:00</time>
      </trkpt>
      <trkpt lat="42.71376" lon="1.49024">
        <ele>1197</ele>
        <time>2016-07-03T11:58:48+02:00</time>
      </trkpt>
      <trkpt lat="42.71361" lon="1.49034">
        <ele>1199</ele>
        <time>2016-07-03T11:59:04+02:00</time>
      </trkpt>
      <trkpt lat="42.71342" lon="1.4904">
        <ele>1201</ele>
        <time>2016-07-03T11:59:32+02:00</time>
      </trkpt>
      <trkpt lat="42.71326" lon="1.49057">
        <ele>1203</ele>
        <time>2016-07-03T11:59:55+02:00</time>
      </trkpt>
      <trkpt lat="42.71316" lon="1.49072">
        <ele>1205</ele>
        <time>2016-07-03T12:00:13+02:00</time>
      </trkpt>
      <trkpt lat="42.713" lon="1.4909">
        <ele>1208</ele>
        <time>2016-07-03T12:00:35+02:00</time>
      </trkpt>
      <trkpt lat="42.7131" lon="1.49107">
        <ele>1211</ele>
        <time>2016-07-03T12:03:05+02:00</time>
      </trkpt>
      <trkpt lat="42.71306" lon="1.49131">
        <ele>1217</ele>
        <time>2016-07-03T12:03:54+02:00</time>
      </trkpt>
      <trkpt lat="42.71297" lon="1.49147">
        <ele>1220</ele>
        <time>2016-07-03T12:04:29+02:00</time>
      </trkpt>
      <trkpt lat="42.71292" lon="1.49173">
        <ele>1226</ele>
        <time>2016-07-03T12:05:05+02:00</time>
      </trkpt>
      <trkpt lat="42.71278" lon="1.49193">
        <ele>1231</ele>
        <time>2016-07-03T12:05:45+02:00</time>
      </trkpt>
      <trkpt lat="42.71262" lon="1.49213">
        <ele>1236</ele>
        <time>2016-07-03T12:06:20+02:00</time>
      </trkpt>
      <trkpt lat="42.71254" lon="1.49222">
        <ele>1238</ele>
        <time>2016-07-03T12:06:38+02:00</time>
      </trkpt>
      <trkpt lat="42.71241" lon="1.49238">
        <ele>1241</ele>
        <time>2016-07-03T12:07:16+02:00</time>
      </trkpt>
      <trkpt lat="42.71222" lon="1.49254">
        <ele>1246</ele>
        <time>2016-07-03T12:07:49+02:00</time>
      </trkpt>
      <trkpt lat="42.71203" lon="1.49266">
        <ele>1250</ele>
        <time>2016-07-03T12:08:37+02:00</time>
      </trkpt>
      <trkpt lat="42.71188" lon="1.4928">
        <ele>1255</ele>
        <time>2016-07-03T12:09:07+02:00</time>
      </trkpt>
      <trkpt lat="42.71167" lon="1.49287">
        <ele>1258</ele>
        <time>2016-07-03T12:10:04+02:00</time>
      </trkpt>
      <trkpt lat="42.71156" lon="1.49301">
        <ele>1264</ele>
        <time>2016-07-03T12:10:49+02:00</time>
      </trkpt>
      <trkpt lat="42.7114" lon="1.49311">
        <ele>1268</ele>
        <time>2016-07-03T12:11:20+02:00</time>
      </trkpt>
      <trkpt lat="42.71127" lon="1.49324">
        <ele>1273</ele>
        <time>2016-07-03T12:11:42+02:00</time>
      </trkpt>
      <trkpt lat="42.71115" lon="1.49338">
        <ele>1278</ele>
        <time>2016-07-03T12:12:14+02:00</time>
      </trkpt>
      <trkpt lat="42.71094" lon="1.49344">
        <ele>1280</ele>
        <time>2016-07-03T12:13:13+02:00</time>
      </trkpt>
      <trkpt lat="42.71076" lon="1.49362">
        <ele>1286</ele>
        <time>2016-07-03T12:14:12+02:00</time>
      </trkpt>
      <trkpt lat="42.71066" lon="1.49365">
        <ele>1288</ele>
        <time>2016-07-03T12:14:31+02:00</time>
      </trkpt>
      <trkpt lat="42.71048" lon="1.49375">
        <ele>1292</ele>
        <time>2016-07-03T12:15:13+02:00</time>
      </trkpt>
      <trkpt lat="42.71031" lon="1.49391">
        <ele>1296</ele>
        <time>2016-07-03T12:15:51+02:00</time>
      </trkpt>
      <trkpt lat="42.71021" lon="1.4941">
        <ele>1298</ele>
        <time>2016-07-03T12:16:29+02:00</time>
      </trkpt>
      <trkpt lat="42.71007" lon="1.49433">
        <ele>1305</ele>
        <time>2016-07-03T12:17:30+02:00</time>
      </trkpt>
      <trkpt lat="42.70992" lon="1.49441">
        <ele>1309</ele>
        <time>2016-07-03T12:23:29+02:00</time>
      </trkpt>
      <trkpt lat="42.70982" lon="1.49451">
        <ele>1315</ele>
        <time>2016-07-03T12:23:47+02:00</time>
      </trkpt>
      <trkpt lat="42.70967" lon="1.49459">
        <ele>1321</ele>
        <time>2016-07-03T12:24:07+02:00</time>
      </trkpt>
      <trkpt lat="42.70958" lon="1.49471">
        <ele>1326</ele>
        <time>2016-07-03T12:24:28+02:00</time>
      </trkpt>
      <trkpt lat="42.70945" lon="1.49476">
        <ele>1330</ele>
        <time>2016-07-03T12:24:47+02:00</time>
      </trkpt>
      <trkpt lat="42.70932" lon="1.49476">
        <ele>1333</ele>
        <time>2016-07-03T12:25:08+02:00</time>
      </trkpt>
      <trkpt lat="42.70913" lon="1.49477">
        <ele>1338</ele>
        <time>2016-07-03T12:25:47+02:00</time>
      </trkpt>
      <trkpt lat="42.70893" lon="1.49463">
        <ele>1343</ele>
        <time>2016-07-03T12:26:25+02:00</time>
      </trkpt>
      <trkpt lat="42.70888" lon="1.49487">
        <ele>1348</ele>
        <time>2016-07-03T12:28:18+02:00</time>
      </trkpt>
      <trkpt lat="42.70867" lon="1.49479">
        <ele>1355</ele>
        <time>2016-07-03T12:28:58+02:00</time>
      </trkpt>
      <trkpt lat="42.70848" lon="1.49472">
        <ele>1362</ele>
        <time>2016-07-03T12:29:37+02:00</time>
      </trkpt>
      <trkpt lat="42.70831" lon="1.49468">
        <ele>1368</ele>
        <time>2016-07-03T12:30:16+02:00</time>
      </trkpt>
      <trkpt lat="42.7081" lon="1.49469">
        <ele>1373</ele>
        <time>2016-07-03T12:30:55+02:00</time>
      </trkpt>
      <trkpt lat="42.7079" lon="1.4947">
        <ele>1378</ele>
        <time>2016-07-03T12:31:34+02:00</time>
      </trkpt>
      <trkpt lat="42.70772" lon="1.49471">
        <ele>1382</ele>
        <time>2016-07-03T12:32:10+02:00</time>
      </trkpt>
      <trkpt lat="42.70754" lon="1.49481">
        <ele>1384</ele>
        <time>2016-07-03T12:35:00+02:00</time>
      </trkpt>
      <trkpt lat="42.70743" lon="1.49503">
        <ele>1384</ele>
        <time>2016-07-03T12:35:35+02:00</time>
      </trkpt>
      <trkpt lat="42.7073" lon="1.49507">
        <ele>1389</ele>
        <time>2016-07-03T12:35:55+02:00</time>
      </trkpt>
      <trkpt lat="42.70718" lon="1.49517">
        <ele>1395</ele>
        <time>2016-07-03T12:36:17+02:00</time>
      </trkpt>
      <trkpt lat="42.70706" lon="1.49525">
        <ele>1399</ele>
        <time>2016-07-03T12:36:35+02:00</time>
      </trkpt>
      <trkpt lat="42.70694" lon="1.49531">
        <ele>1402</ele>
        <time>2016-07-03T12:36:53+02:00</time>
      </trkpt>
      <trkpt lat="42.70678" lon="1.49544">
        <ele>1406</ele>
        <time>2016-07-03T12:37:29+02:00</time>
      </trkpt>
      <trkpt lat="42.70667" lon="1.49559">
        <ele>1408</ele>
        <time>2016-07-03T12:38:08+02:00</time>
      </trkpt>
      <trkpt lat="42.70656" lon="1.49579">
        <ele>1411</ele>
        <time>2016-07-03T12:38:49+02:00</time>
      </trkpt>
      <trkpt lat="42.70638" lon="1.49589">
        <ele>1415</ele>
        <time>2016-07-03T12:39:47+02:00</time>
      </trkpt>
      <trkpt lat="42.7062" lon="1.49605">
        <ele>1422</ele>
        <time>2016-07-03T12:40:51+02:00</time>
      </trkpt>
      <trkpt lat="42.70603" lon="1.49599">
        <ele>1420</ele>
        <time>2016-07-03T12:43:21+02:00</time>
      </trkpt>
      <trkpt lat="42.70584" lon="1.49612">
        <ele>1425</ele>
        <time>2016-07-03T12:44:08+02:00</time>
      </trkpt>
      <trkpt lat="42.70565" lon="1.49621">
        <ele>1432</ele>
        <time>2016-07-03T12:44:49+02:00</time>
      </trkpt>
      <trkpt lat="42.70549" lon="1.49627">
        <ele>1437</ele>
        <time>2016-07-03T12:45:27+02:00</time>
      </trkpt>
      <trkpt lat="42.70535" lon="1.49633">
        <ele>1441</ele>
        <time>2016-07-03T12:46:04+02:00</time>
      </trkpt>
      <trkpt lat="42.7052" lon="1.49646">
        <ele>1444</ele>
        <time>2016-07-03T12:46:54+02:00</time>
      </trkpt>
      <trkpt lat="42.70501" lon="1.49654">
        <ele>1447</ele>
        <time>2016-07-03T12:47:31+02:00</time>
      </trkpt>
      <trkpt lat="42.70484" lon="1.49666">
        <ele>1452</ele>
        <time>2016-07-03T12:48:08+02:00</time>
      </trkpt>
      <trkpt lat="42.70469" lon="1.49675">
        <ele>1459</ele>
        <time>2016-07-03T12:48:47+02:00</time>
      </trkpt>
      <trkpt lat="42.70458" lon="1.49693">
        <ele>1467</ele>
        <time>2016-07-03T12:49:45+02:00</time>
      </trkpt>
      <trkpt lat="42.70438" lon="1.49701">
        <ele>1472</ele>
        <time>2016-07-03T12:50:51+02:00</time>
      </trkpt>
      <trkpt lat="42.70423" lon="1.49705">
        <ele>1475</ele>
        <time>2016-07-03T12:51:42+02:00</time>
      </trkpt>
      <trkpt lat="42.70403" lon="1.4971">
        <ele>1479</ele>
        <time>2016-07-03T12:56:31+02:00</time>
      </trkpt>
      <trkpt lat="42.70385" lon="1.49723">
        <ele>1483</ele>
        <time>2016-07-03T12:57:16+02:00</time>
      </trkpt>
      <trkpt lat="42.70371" lon="1.49741">
        <ele>1486</ele>
        <time>2016-07-03T12:57:49+02:00</time>
      </trkpt>
      <trkpt lat="42.7035" lon="1.49751">
        <ele>1490</ele>
        <time>2016-07-03T12:58:51+02:00</time>
      </trkpt>
      <trkpt lat="42.7033" lon="1.49758">
        <ele>1496</ele>
        <time>2016-07-03T12:59:36+02:00</time>
      </trkpt>
      <trkpt lat="42.70313" lon="1.49756">
        <ele>1502</ele>
        <time>2016-07-03T13:00:20+02:00</time>
      </trkpt>
      <trkpt lat="42.70294" lon="1.49753">
        <ele>1509</ele>
        <time>2016-07-03T13:02:20+02:00</time>
      </trkpt>
      <trkpt lat="42.70273" lon="1.49748">
        <ele>1516</ele>
        <time>2016-07-03T13:08:43+02:00</time>
      </trkpt>
      <trkpt lat="42.70252" lon="1.4975">
        <ele>1525</ele>
        <time>2016-07-03T13:10:18+02:00</time>
      </trkpt>
      <trkpt lat="42.70237" lon="1.49758">
        <ele>1531</ele>
        <time>2016-07-03T13:11:23+02:00</time>
      </trkpt>
      <trkpt lat="42.70216" lon="1.49753">
        <ele>1536</ele>
        <time>2016-07-03T13:12:50+02:00</time>
      </trkpt>
      <trkpt lat="42.70196" lon="1.49746">
        <ele>1539</ele>
        <time>2016-07-03T13:13:45+02:00</time>
      </trkpt>
      <trkpt lat="42.70179" lon="1.49739">
        <ele>1541</ele>
        <time>2016-07-03T13:14:42+02:00</time>
      </trkpt>
      <trkpt lat="42.70163" lon="1.49733">
        <ele>1543</ele>
        <time>2016-07-03T13:15:15+02:00</time>
      </trkpt>
      <trkpt lat="42.7015" lon="1.49726">
        <ele>1544</ele>
        <time>2016-07-03T13:15:32+02:00</time>
      </trkpt>
      <trkpt lat="42.70132" lon="1.49715">
        <ele>1545</ele>
        <time>2016-07-03T13:16:04+02:00</time>
      </trkpt>
      <trkpt lat="42.70116" lon="1.49709">
        <ele>1547</ele>
        <time>2016-07-03T13:16:26+02:00</time>
      </trkpt>
      <trkpt lat="42.70095" lon="1.49709">
        <ele>1552</ele>
        <time>2016-07-03T13:16:59+02:00</time>
      </trkpt>
      <trkpt lat="42.70076" lon="1.4971">
        <ele>1558</ele>
        <time>2016-07-03T13:17:30+02:00</time>
      </trkpt>
      <trkpt lat="42.70058" lon="1.49705">
        <ele>1561</ele>
        <time>2016-07-03T13:18:00+02:00</time>
      </trkpt>
      <trkpt lat="42.70037" lon="1.497">
        <ele>1567</ele>
        <time>2016-07-03T13:18:45+02:00</time>
      </trkpt>
      <trkpt lat="42.7003" lon="1.49681">
        <ele>1564</ele>
        <time>2016-07-03T13:19:18+02:00</time>
      </trkpt>
      <trkpt lat="42.70012" lon="1.49674">
        <ele>1568</ele>
        <time>2016-07-03T13:19:53+02:00</time>
      </trkpt>
      <trkpt lat="42.69992" lon="1.49674">
        <ele>1575</ele>
        <time>2016-07-03T13:20:38+02:00</time>
      </trkpt>
      <trkpt lat="42.69971" lon="1.49677">
        <ele>1580</ele>
        <time>2016-07-03T13:21:32+02:00</time>
      </trkpt>
      <trkpt lat="42.69956" lon="1.49669">
        <ele>1581</ele>
        <time>2016-07-03T13:22:02+02:00</time>
      </trkpt>
      <trkpt lat="42.69938" lon="1.49667">
        <ele>1584</ele>
        <time>2016-07-03T13:23:15+02:00</time>
      </trkpt>
      <trkpt lat="42.69925" lon="1.49666">
        <ele>1586</ele>
        <time>2016-07-03T13:23:31+02:00</time>
      </trkpt>
      <trkpt lat="42.69904" lon="1.49665">
        <ele>1590</ele>
        <time>2016-07-03T13:23:59+02:00</time>
      </trkpt>
      <trkpt lat="42.69886" lon="1.49673">
        <ele>1595</ele>
        <time>2016-07-03T13:24:29+02:00</time>
      </trkpt>
      <trkpt lat="42.69867" lon="1.49671">
        <ele>1598</ele>
        <time>2016-07-03T13:25:18+02:00</time>
      </trkpt>
      <trkpt lat="42.6985" lon="1.49674">
        <ele>1602</ele>
        <time>2016-07-03T13:25:50+02:00</time>
      </trkpt>
      <trkpt lat="42.69828" lon="1.49665">
        <ele>1603</ele>
        <time>2016-07-03T13:26:52+02:00</time>
      </trkpt>
      <trkpt lat="42.69809" lon="1.49652">
        <ele>1600</ele>
        <time>2016-07-03T13:27:32+02:00</time>
      </trkpt>
      <trkpt lat="42.6979" lon="1.49651">
        <ele>1603</ele>
        <time>2016-07-03T13:28:29+02:00</time>
      </trkpt>
      <trkpt lat="42.69773" lon="1.49656">
        <ele>1608</ele>
        <time>2016-07-03T13:28:58+02:00</time>
      </trkpt>
      <trkpt lat="42.69754" lon="1.49665">
        <ele>1616</ele>
        <time>2016-07-03T13:29:29+02:00</time>
      </trkpt>
      <trkpt lat="42.69736" lon="1.49675">
        <ele>1618</ele>
        <time>2016-07-03T13:30:02+02:00</time>
      </trkpt>
      <trkpt lat="42.69726" lon="1.49682">
        <ele>1619</ele>
        <time>2016-07-03T13:30:15+02:00</time>
      </trkpt>
      <trkpt lat="42.6971" lon="1.49696">
        <ele>1621</ele>
        <time>2016-07-03T13:30:39+02:00</time>
      </trkpt>
      <trkpt lat="42.69694" lon="1.49705">
        <ele>1623</ele>
        <time>2016-07-03T13:31:09+02:00</time>
      </trkpt>
      <trkpt lat="42.69675" lon="1.49713">
        <ele>1624</ele>
        <time>2016-07-03T13:31:40+02:00</time>
      </trkpt>
      <trkpt lat="42.69657" lon="1.49722">
        <ele>1626</ele>
        <time>2016-07-03T13:32:11+02:00</time>
      </trkpt>
      <trkpt lat="42.69639" lon="1.4974">
        <ele>1633</ele>
        <time>2016-07-03T13:32:40+02:00</time>
      </trkpt>
      <trkpt lat="42.69628" lon="1.49744">
        <ele>1634</ele>
        <time>2016-07-03T13:32:56+02:00</time>
      </trkpt>
      <trkpt lat="42.69615" lon="1.49751">
        <ele>1635</ele>
        <time>2016-07-03T13:33:15+02:00</time>
      </trkpt>
      <trkpt lat="42.69595" lon="1.49762">
        <ele>1637</ele>
        <time>2016-07-03T13:33:48+02:00</time>
      </trkpt>
      <trkpt lat="42.69582" lon="1.49766">
        <ele>1638</ele>
        <time>2016-07-03T13:34:10+02:00</time>
      </trkpt>
      <trkpt lat="42.69562" lon="1.49775">
        <ele>1643</ele>
        <time>2016-07-03T13:34:42+02:00</time>
      </trkpt>
      <trkpt lat="42.69546" lon="1.49793">
        <ele>1650</ele>
        <time>2016-07-03T13:35:25+02:00</time>
      </trkpt>
      <trkpt lat="42.69526" lon="1.49794">
        <ele>1652</ele>
        <time>2016-07-03T13:35:55+02:00</time>
      </trkpt>
      <trkpt lat="42.69514" lon="1.49799">
        <ele>1654</ele>
        <time>2016-07-03T13:36:16+02:00</time>
      </trkpt>
      <trkpt lat="42.69497" lon="1.49801">
        <ele>1655</ele>
        <time>2016-07-03T13:36:49+02:00</time>
      </trkpt>
      <trkpt lat="42.69475" lon="1.49804">
        <ele>1656</ele>
        <time>2016-07-03T13:37:39+02:00</time>
      </trkpt>
      <trkpt lat="42.69456" lon="1.49812">
        <ele>1658</ele>
        <time>2016-07-03T13:38:22+02:00</time>
      </trkpt>
      <trkpt lat="42.69435" lon="1.49817">
        <ele>1659</ele>
        <time>2016-07-03T13:39:55+02:00</time>
      </trkpt>
      <trkpt lat="42.69418" lon="1.49829">
        <ele>1662</ele>
        <time>2016-07-03T13:41:01+02:00</time>
      </trkpt>
      <trkpt lat="42.69402" lon="1.4983">
        <ele>1661</ele>
        <time>2016-07-03T13:42:48+02:00</time>
      </trkpt>
      <trkpt lat="42.69382" lon="1.49833">
        <ele>1661</ele>
        <time>2016-07-03T13:43:24+02:00</time>
      </trkpt>
      <trkpt lat="42.69365" lon="1.49841">
        <ele>1662</ele>
        <time>2016-07-03T13:44:01+02:00</time>
      </trkpt>
      <trkpt lat="42.69345" lon="1.4985">
        <ele>1663</ele>
        <time>2016-07-03T13:44:33+02:00</time>
      </trkpt>
      <trkpt lat="42.69326" lon="1.49862">
        <ele>1664</ele>
        <time>2016-07-03T13:45:29+02:00</time>
      </trkpt>
      <trkpt lat="42.69307" lon="1.49872">
        <ele>1665</ele>
        <time>2016-07-03T13:49:37+02:00</time>
      </trkpt>
      <trkpt lat="42.69288" lon="1.49858">
        <ele>1660</ele>
        <time>2016-07-03T13:52:14+02:00</time>
      </trkpt>
      <trkpt lat="42.69269" lon="1.4987">
        <ele>1661</ele>
        <time>2016-07-03T13:52:41+02:00</time>
      </trkpt>
      <trkpt lat="42.69252" lon="1.49887">
        <ele>1664</ele>
        <time>2016-07-03T13:54:12+02:00</time>
      </trkpt>
      <trkpt lat="42.69245" lon="1.49894">
        <ele>1664</ele>
        <time>2016-07-03T13:56:49+02:00</time>
      </trkpt>
      <trkpt lat="42.69259" lon="1.49918">
        <ele>1672</ele>
        <time>2016-07-03T13:59:08+02:00</time>
      </trkpt>
      <trkpt lat="42.69255" lon="1.49945">
        <ele>1678</ele>
        <time>2016-07-03T13:59:28+02:00</time>
      </trkpt>
      <trkpt lat="42.69239" lon="1.49965">
        <ele>1680</ele>
        <time>2016-07-03T14:00:03+02:00</time>
      </trkpt>
      <trkpt lat="42.69221" lon="1.49972">
        <ele>1679</ele>
        <time>2016-07-03T14:00:35+02:00</time>
      </trkpt>
      <trkpt lat="42.69209" lon="1.49961">
        <ele>1674</ele>
        <time>2016-07-03T14:00:55+02:00</time>
      </trkpt>
      <trkpt lat="42.69196" lon="1.49944">
        <ele>1666</ele>
        <time>2016-07-03T14:01:27+02:00</time>
      </trkpt>
      <trkpt lat="42.69187" lon="1.49921">
        <ele>1657</ele>
        <time>2016-07-03T14:01:58+02:00</time>
      </trkpt>
      <trkpt lat="42.69184" lon="1.49894">
        <ele>1651</ele>
        <time>2016-07-03T14:02:27+02:00</time>
      </trkpt>
      <trkpt lat="42.69183" lon="1.49872">
        <ele>1647</ele>
        <time>2016-07-03T14:02:57+02:00</time>
      </trkpt>
      <trkpt lat="42.69199" lon="1.49867">
        <ele>1649</ele>
        <time>2016-07-03T15:31:13+02:00</time>
      </trkpt>
      <trkpt lat="42.69221" lon="1.49871">
        <ele>1654</ele>
        <time>2016-07-03T15:31:50+02:00</time>
      </trkpt>
      <trkpt lat="42.69241" lon="1.49859">
        <ele>1655</ele>
        <time>2016-07-03T15:32:42+02:00</time>
      </trkpt>
      <trkpt lat="42.6926" lon="1.49846">
        <ele>1654</ele>
        <time>2016-07-03T15:33:51+02:00</time>
      </trkpt>
      <trkpt lat="42.69277" lon="1.49841">
        <ele>1655</ele>
        <time>2016-07-03T15:34:15+02:00</time>
      </trkpt>
      <trkpt lat="42.69296" lon="1.49835">
        <ele>1655</ele>
        <time>2016-07-03T15:34:39+02:00</time>
      </trkpt>
      <trkpt lat="42.69293" lon="1.49814">
        <ele>1650</ele>
        <time>2016-07-03T15:38:36+02:00</time>
      </trkpt>
      <trkpt lat="42.69305" lon="1.49789">
        <ele>1645</ele>
        <time>2016-07-03T15:41:07+02:00</time>
      </trkpt>
      <trkpt lat="42.69311" lon="1.49764">
        <ele>1639</ele>
        <time>2016-07-03T15:42:00+02:00</time>
      </trkpt>
      <trkpt lat="42.69303" lon="1.49737">
        <ele>1636</ele>
        <time>2016-07-03T15:42:57+02:00</time>
      </trkpt>
      <trkpt lat="42.69316" lon="1.49712">
        <ele>1635</ele>
        <time>2016-07-03T15:43:19+02:00</time>
      </trkpt>
      <trkpt lat="42.69316" lon="1.49705">
        <ele>1635</ele>
        <time>2016-07-03T15:43:38+02:00</time>
      </trkpt>
      <trkpt lat="42.69325" lon="1.49682">
        <ele>1633</ele>
        <time>2016-07-03T15:44:19+02:00</time>
      </trkpt>
      <trkpt lat="42.69343" lon="1.49669">
        <ele>1630</ele>
        <time>2016-07-03T15:44:58+02:00</time>
      </trkpt>
      <trkpt lat="42.69361" lon="1.49654">
        <ele>1631</ele>
        <time>2016-07-03T15:45:46+02:00</time>
      </trkpt>
      <trkpt lat="42.69368" lon="1.49651">
        <ele>1631</ele>
        <time>2016-07-03T15:45:59+02:00</time>
      </trkpt>
      <trkpt lat="42.69384" lon="1.49645">
        <ele>1629</ele>
        <time>2016-07-03T15:46:15+02:00</time>
      </trkpt>
      <trkpt lat="42.69399" lon="1.49623">
        <ele>1630</ele>
        <time>2016-07-03T15:46:44+02:00</time>
      </trkpt>
      <trkpt lat="42.69417" lon="1.49642">
        <ele>1621</ele>
        <time>2016-07-03T15:49:46+02:00</time>
      </trkpt>
      <trkpt lat="42.69434" lon="1.49622">
        <ele>1622</ele>
        <time>2016-07-03T15:51:08+02:00</time>
      </trkpt>
      <trkpt lat="42.69445" lon="1.49601">
        <ele>1620</ele>
        <time>2016-07-03T15:53:01+02:00</time>
      </trkpt>
      <trkpt lat="42.6946" lon="1.49587">
        <ele>1614</ele>
        <time>2016-07-03T15:53:32+02:00</time>
      </trkpt>
      <trkpt lat="42.69477" lon="1.49572">
        <ele>1613</ele>
        <time>2016-07-03T15:54:12+02:00</time>
      </trkpt>
      <trkpt lat="42.69494" lon="1.49563">
        <ele>1609</ele>
        <time>2016-07-03T15:54:36+02:00</time>
      </trkpt>
      <trkpt lat="42.69511" lon="1.49554">
        <ele>1607</ele>
        <time>2016-07-03T15:54:58+02:00</time>
      </trkpt>
      <trkpt lat="42.69529" lon="1.49545">
        <ele>1603</ele>
        <time>2016-07-03T15:55:28+02:00</time>
      </trkpt>
      <trkpt lat="42.69547" lon="1.49538">
        <ele>1598</ele>
        <time>2016-07-03T15:55:46+02:00</time>
      </trkpt>
      <trkpt lat="42.69566" lon="1.49524">
        <ele>1593</ele>
        <time>2016-07-03T15:56:07+02:00</time>
      </trkpt>
      <trkpt lat="42.69586" lon="1.49513">
        <ele>1585</ele>
        <time>2016-07-03T15:56:29+02:00</time>
      </trkpt>
      <trkpt lat="42.69606" lon="1.49505">
        <ele>1581</ele>
        <time>2016-07-03T15:56:56+02:00</time>
      </trkpt>
      <trkpt lat="42.69625" lon="1.49491">
        <ele>1581</ele>
        <time>2016-07-03T15:57:37+02:00</time>
      </trkpt>
      <trkpt lat="42.69642" lon="1.49475">
        <ele>1584</ele>
        <time>2016-07-03T15:58:05+02:00</time>
      </trkpt>
      <trkpt lat="42.69652" lon="1.49453">
        <ele>1592</ele>
        <time>2016-07-03T15:58:27+02:00</time>
      </trkpt>
      <trkpt lat="42.69657" lon="1.49441">
        <ele>1595</ele>
        <time>2016-07-03T15:58:39+02:00</time>
      </trkpt>
      <trkpt lat="42.69665" lon="1.49425">
        <ele>1599</ele>
        <time>2016-07-03T15:58:53+02:00</time>
      </trkpt>
      <trkpt lat="42.69674" lon="1.49412">
        <ele>1602</ele>
        <time>2016-07-03T15:59:22+02:00</time>
      </trkpt>
      <trkpt lat="42.69693" lon="1.49402">
        <ele>1600</ele>
        <time>2016-07-03T15:59:57+02:00</time>
      </trkpt>
      <trkpt lat="42.69709" lon="1.49403">
        <ele>1595</ele>
        <time>2016-07-03T16:00:21+02:00</time>
      </trkpt>
      <trkpt lat="42.69727" lon="1.49405">
        <ele>1589</ele>
        <time>2016-07-03T16:00:50+02:00</time>
      </trkpt>
      <trkpt lat="42.69741" lon="1.49407">
        <ele>1584</ele>
        <time>2016-07-03T16:01:06+02:00</time>
      </trkpt>
      <trkpt lat="42.69762" lon="1.49408">
        <ele>1580</ele>
        <time>2016-07-03T16:01:32+02:00</time>
      </trkpt>
      <trkpt lat="42.69782" lon="1.49401">
        <ele>1580</ele>
        <time>2016-07-03T16:02:17+02:00</time>
      </trkpt>
      <trkpt lat="42.698" lon="1.49408">
        <ele>1576</ele>
        <time>2016-07-03T16:02:42+02:00</time>
      </trkpt>
      <trkpt lat="42.69817" lon="1.49404">
        <ele>1576</ele>
        <time>2016-07-03T16:03:32+02:00</time>
      </trkpt>
      <trkpt lat="42.69838" lon="1.49406">
        <ele>1574</ele>
        <time>2016-07-03T16:04:31+02:00</time>
      </trkpt>
      <trkpt lat="42.69857" lon="1.49418">
        <ele>1568</ele>
        <time>2016-07-03T16:05:17+02:00</time>
      </trkpt>
      <trkpt lat="42.69874" lon="1.49435">
        <ele>1565</ele>
        <time>2016-07-03T16:05:37+02:00</time>
      </trkpt>
      <trkpt lat="42.69893" lon="1.49448">
        <ele>1562</ele>
        <time>2016-07-03T16:06:07+02:00</time>
      </trkpt>
      <trkpt lat="42.69906" lon="1.49459">
        <ele>1560</ele>
        <time>2016-07-03T16:06:21+02:00</time>
      </trkpt>
      <trkpt lat="42.69917" lon="1.49463">
        <ele>1560</ele>
        <time>2016-07-03T16:06:36+02:00</time>
      </trkpt>
      <trkpt lat="42.69933" lon="1.49463">
        <ele>1561</ele>
        <time>2016-07-03T16:06:51+02:00</time>
      </trkpt>
      <trkpt lat="42.69955" lon="1.49463">
        <ele>1563</ele>
        <time>2016-07-03T16:07:18+02:00</time>
      </trkpt>
      <trkpt lat="42.69977" lon="1.49463">
        <ele>1566</ele>
        <time>2016-07-03T16:07:40+02:00</time>
      </trkpt>
      <trkpt lat="42.69992" lon="1.49465">
        <ele>1566</ele>
        <time>2016-07-03T16:07:56+02:00</time>
      </trkpt>
      <trkpt lat="42.7001" lon="1.49473">
        <ele>1564</ele>
        <time>2016-07-03T16:08:27+02:00</time>
      </trkpt>
      <trkpt lat="42.70021" lon="1.49475">
        <ele>1564</ele>
        <time>2016-07-03T16:08:56+02:00</time>
      </trkpt>
      <trkpt lat="42.70037" lon="1.49478">
        <ele>1563</ele>
        <time>2016-07-03T16:09:14+02:00</time>
      </trkpt>
      <trkpt lat="42.70055" lon="1.49484">
        <ele>1560</ele>
        <time>2016-07-03T16:09:32+02:00</time>
      </trkpt>
      <trkpt lat="42.70069" lon="1.49489">
        <ele>1559</ele>
        <time>2016-07-03T16:09:48+02:00</time>
      </trkpt>
      <trkpt lat="42.70086" lon="1.49504">
        <ele>1554</ele>
        <time>2016-07-03T16:10:15+02:00</time>
      </trkpt>
      <trkpt lat="42.70098" lon="1.4951">
        <ele>1552</ele>
        <time>2016-07-03T16:10:31+02:00</time>
      </trkpt>
      <trkpt lat="42.70118" lon="1.49523">
        <ele>1548</ele>
        <time>2016-07-03T16:11:22+02:00</time>
      </trkpt>
      <trkpt lat="42.70131" lon="1.49529">
        <ele>1546</ele>
        <time>2016-07-03T16:11:37+02:00</time>
      </trkpt>
      <trkpt lat="42.70146" lon="1.49538">
        <ele>1542</ele>
        <time>2016-07-03T16:11:54+02:00</time>
      </trkpt>
      <trkpt lat="42.70164" lon="1.49549">
        <ele>1537</ele>
        <time>2016-07-03T16:12:22+02:00</time>
      </trkpt>
      <trkpt lat="42.70185" lon="1.49552">
        <ele>1534</ele>
        <time>2016-07-03T16:13:05+02:00</time>
      </trkpt>
      <trkpt lat="42.70204" lon="1.49546">
        <ele>1535</ele>
        <time>2016-07-03T16:13:48+02:00</time>
      </trkpt>
      <trkpt lat="42.70214" lon="1.49541">
        <ele>1537</ele>
        <time>2016-07-03T16:14:01+02:00</time>
      </trkpt>
      <trkpt lat="42.70237" lon="1.49541">
        <ele>1534</ele>
        <time>2016-07-03T16:14:32+02:00</time>
      </trkpt>
      <trkpt lat="42.70253" lon="1.49546">
        <ele>1531</ele>
        <time>2016-07-03T16:15:13+02:00</time>
      </trkpt>
      <trkpt lat="42.70273" lon="1.49541">
        <ele>1531</ele>
        <time>2016-07-03T16:15:50+02:00</time>
      </trkpt>
      <trkpt lat="42.7029" lon="1.49541">
        <ele>1528</ele>
        <time>2016-07-03T16:16:10+02:00</time>
      </trkpt>
      <trkpt lat="42.7031" lon="1.49534">
        <ele>1529</ele>
        <time>2016-07-03T16:16:33+02:00</time>
      </trkpt>
      <trkpt lat="42.70325" lon="1.49527">
        <ele>1530</ele>
        <time>2016-07-03T16:16:54+02:00</time>
      </trkpt>
      <trkpt lat="42.70344" lon="1.49531">
        <ele>1524</ele>
        <time>2016-07-03T16:17:22+02:00</time>
      </trkpt>
      <trkpt lat="42.70363" lon="1.49537">
        <ele>1516</ele>
        <time>2016-07-03T16:17:56+02:00</time>
      </trkpt>
      <trkpt lat="42.70379" lon="1.49536">
        <ele>1511</ele>
        <time>2016-07-03T16:18:42+02:00</time>
      </trkpt>
      <trkpt lat="42.70397" lon="1.49525">
        <ele>1510</ele>
        <time>2016-07-03T16:19:24+02:00</time>
      </trkpt>
      <trkpt lat="42.70414" lon="1.49515">
        <ele>1508</ele>
        <time>2016-07-03T16:19:55+02:00</time>
      </trkpt>
      <trkpt lat="42.70435" lon="1.49507">
        <ele>1501</ele>
        <time>2016-07-03T16:20:31+02:00</time>
      </trkpt>
      <trkpt lat="42.70448" lon="1.49506">
        <ele>1495</ele>
        <time>2016-07-03T16:20:58+02:00</time>
      </trkpt>
      <trkpt lat="42.70469" lon="1.49497">
        <ele>1487</ele>
        <time>2016-07-03T16:21:33+02:00</time>
      </trkpt>
      <trkpt lat="42.70491" lon="1.49496">
        <ele>1477</ele>
        <time>2016-07-03T16:22:13+02:00</time>
      </trkpt>
      <trkpt lat="42.70502" lon="1.49499">
        <ele>1470</ele>
        <time>2016-07-03T16:22:25+02:00</time>
      </trkpt>
      <trkpt lat="42.70518" lon="1.49499">
        <ele>1465</ele>
        <time>2016-07-03T16:22:42+02:00</time>
      </trkpt>
      <trkpt lat="42.70538" lon="1.49486">
        <ele>1465</ele>
        <time>2016-07-03T16:23:08+02:00</time>
      </trkpt>
      <trkpt lat="42.70554" lon="1.49482">
        <ele>1462</ele>
        <time>2016-07-03T16:23:36+02:00</time>
      </trkpt>
      <trkpt lat="42.70575" lon="1.49476">
        <ele>1459</ele>
        <time>2016-07-03T16:24:01+02:00</time>
      </trkpt>
      <trkpt lat="42.70591" lon="1.49494">
        <ele>1443</ele>
        <time>2016-07-03T16:25:52+02:00</time>
      </trkpt>
      <trkpt lat="42.70603" lon="1.49501">
        <ele>1434</ele>
        <time>2016-07-03T16:27:04+02:00</time>
      </trkpt>
      <trkpt lat="42.70614" lon="1.4949">
        <ele>1434</ele>
        <time>2016-07-03T16:27:22+02:00</time>
      </trkpt>
      <trkpt lat="42.7062" lon="1.49479">
        <ele>1437</ele>
        <time>2016-07-03T16:27:38+02:00</time>
      </trkpt>
      <trkpt lat="42.70632" lon="1.4947">
        <ele>1436</ele>
        <time>2016-07-03T16:27:55+02:00</time>
      </trkpt>
      <trkpt lat="42.70642" lon="1.49462">
        <ele>1437</ele>
        <time>2016-07-03T16:28:14+02:00</time>
      </trkpt>
      <trkpt lat="42.70649" lon="1.49448">
        <ele>1441</ele>
        <time>2016-07-03T16:28:35+02:00</time>
      </trkpt>
      <trkpt lat="42.70658" lon="1.49435">
        <ele>1443</ele>
        <time>2016-07-03T16:28:53+02:00</time>
      </trkpt>
      <trkpt lat="42.70675" lon="1.49435">
        <ele>1435</ele>
        <time>2016-07-03T16:29:12+02:00</time>
      </trkpt>
      <trkpt lat="42.70687" lon="1.49448">
        <ele>1422</ele>
        <time>2016-07-03T16:30:54+02:00</time>
      </trkpt>
      <trkpt lat="42.70702" lon="1.4945">
        <ele>1414</ele>
        <time>2016-07-03T16:31:55+02:00</time>
      </trkpt>
      <trkpt lat="42.70722" lon="1.49435">
        <ele>1410</ele>
        <time>2016-07-03T16:32:26+02:00</time>
      </trkpt>
      <trkpt lat="42.70743" lon="1.49429">
        <ele>1400</ele>
        <time>2016-07-03T16:32:58+02:00</time>
      </trkpt>
      <trkpt lat="42.7076" lon="1.49419">
        <ele>1395</ele>
        <time>2016-07-03T16:33:36+02:00</time>
      </trkpt>
      <trkpt lat="42.7078" lon="1.49416">
        <ele>1388</ele>
        <time>2016-07-03T16:34:14+02:00</time>
      </trkpt>
      <trkpt lat="42.70791" lon="1.49415">
        <ele>1385</ele>
        <time>2016-07-03T16:34:33+02:00</time>
      </trkpt>
      <trkpt lat="42.70811" lon="1.49427">
        <ele>1376</ele>
        <time>2016-07-03T16:35:34+02:00</time>
      </trkpt>
      <trkpt lat="42.70825" lon="1.49424">
        <ele>1372</ele>
        <time>2016-07-03T16:38:13+02:00</time>
      </trkpt>
      <trkpt lat="42.70846" lon="1.49422">
        <ele>1362</ele>
        <time>2016-07-03T16:38:45+02:00</time>
      </trkpt>
      <trkpt lat="42.70868" lon="1.49414">
        <ele>1352</ele>
        <time>2016-07-03T16:39:19+02:00</time>
      </trkpt>
      <trkpt lat="42.70882" lon="1.49402">
        <ele>1349</ele>
        <time>2016-07-03T16:39:39+02:00</time>
      </trkpt>
      <trkpt lat="42.70893" lon="1.49382">
        <ele>1350</ele>
        <time>2016-07-03T16:40:11+02:00</time>
      </trkpt>
      <trkpt lat="42.70913" lon="1.49386">
        <ele>1339</ele>
        <time>2016-07-03T16:40:52+02:00</time>
      </trkpt>
      <trkpt lat="42.70929" lon="1.49382">
        <ele>1332</ele>
        <time>2016-07-03T16:41:51+02:00</time>
      </trkpt>
      <trkpt lat="42.70945" lon="1.49376">
        <ele>1325</ele>
        <time>2016-07-03T16:42:21+02:00</time>
      </trkpt>
      <trkpt lat="42.70965" lon="1.49364">
        <ele>1315</ele>
        <time>2016-07-03T16:42:57+02:00</time>
      </trkpt>
      <trkpt lat="42.70977" lon="1.49345">
        <ele>1310</ele>
        <time>2016-07-03T16:43:30+02:00</time>
      </trkpt>
      <trkpt lat="42.70992" lon="1.49327">
        <ele>1301</ele>
        <time>2016-07-03T16:44:18+02:00</time>
      </trkpt>
      <trkpt lat="42.71" lon="1.49308">
        <ele>1300</ele>
        <time>2016-07-03T16:44:53+02:00</time>
      </trkpt>
      <trkpt lat="42.7101" lon="1.49292">
        <ele>1300</ele>
        <time>2016-07-03T16:45:12+02:00</time>
      </trkpt>
      <trkpt lat="42.71018" lon="1.49273">
        <ele>1299</ele>
        <time>2016-07-03T16:45:31+02:00</time>
      </trkpt>
      <trkpt lat="42.71035" lon="1.49256">
        <ele>1290</ele>
        <time>2016-07-03T16:46:02+02:00</time>
      </trkpt>
      <trkpt lat="42.71048" lon="1.49236">
        <ele>1283</ele>
        <time>2016-07-03T16:46:34+02:00</time>
      </trkpt>
      <trkpt lat="42.71063" lon="1.49218">
        <ele>1273</ele>
        <time>2016-07-03T16:47:10+02:00</time>
      </trkpt>
      <trkpt lat="42.71072" lon="1.49197">
        <ele>1266</ele>
        <time>2016-07-03T16:47:35+02:00</time>
      </trkpt>
      <trkpt lat="42.71088" lon="1.49215">
        <ele>1254</ele>
        <time>2016-07-03T16:48:13+02:00</time>
      </trkpt>
      <trkpt lat="42.71105" lon="1.49204">
        <ele>1249</ele>
        <time>2016-07-03T16:52:54+02:00</time>
      </trkpt>
      <trkpt lat="42.71116" lon="1.49178">
        <ele>1244</ele>
        <time>2016-07-03T16:53:23+02:00</time>
      </trkpt>
      <trkpt lat="42.71126" lon="1.49159">
        <ele>1242</ele>
        <time>2016-07-03T16:53:56+02:00</time>
      </trkpt>
      <trkpt lat="42.71135" lon="1.49143">
        <ele>1241</ele>
        <time>2016-07-03T16:54:14+02:00</time>
      </trkpt>
      <trkpt lat="42.7115" lon="1.4913">
        <ele>1237</ele>
        <time>2016-07-03T16:54:34+02:00</time>
      </trkpt>
      <trkpt lat="42.71166" lon="1.49114">
        <ele>1232</ele>
        <time>2016-07-03T16:54:54+02:00</time>
      </trkpt>
      <trkpt lat="42.71182" lon="1.49106">
        <ele>1229</ele>
        <time>2016-07-03T16:55:22+02:00</time>
      </trkpt>
      <trkpt lat="42.71198" lon="1.49097">
        <ele>1226</ele>
        <time>2016-07-03T16:55:42+02:00</time>
      </trkpt>
      <trkpt lat="42.71208" lon="1.49093">
        <ele>1224</ele>
        <time>2016-07-03T16:55:54+02:00</time>
      </trkpt>
      <trkpt lat="42.71228" lon="1.49083">
        <ele>1219</ele>
        <time>2016-07-03T16:56:24+02:00</time>
      </trkpt>
      <trkpt lat="42.71247" lon="1.49072">
        <ele>1214</ele>
        <time>2016-07-03T16:57:10+02:00</time>
      </trkpt>
      <trkpt lat="42.71266" lon="1.49075">
        <ele>1211</ele>
        <time>2016-07-03T16:57:40+02:00</time>
      </trkpt>
      <trkpt lat="42.71281" lon="1.4908">
        <ele>1209</ele>
        <time>2016-07-03T16:58:09+02:00</time>
      </trkpt>
      <trkpt lat="42.71298" lon="1.49073">
        <ele>1207</ele>
        <time>2016-07-03T16:58:37+02:00</time>
      </trkpt>
      <trkpt lat="42.71312" lon="1.49053">
        <ele>1205</ele>
        <time>2016-07-03T16:58:55+02:00</time>
      </trkpt>
      <trkpt lat="42.71322" lon="1.49045">
        <ele>1203</ele>
        <time>2016-07-03T16:59:05+02:00</time>
      </trkpt>
      <trkpt lat="42.71338" lon="1.49038">
        <ele>1201</ele>
        <time>2016-07-03T16:59:18+02:00</time>
      </trkpt>
      <trkpt lat="42.71354" lon="1.49031">
        <ele>1199</ele>
        <time>2016-07-03T16:59:33+02:00</time>
      </trkpt>
      <trkpt lat="42.7137" lon="1.49024">
        <ele>1197</ele>
        <time>2016-07-03T16:59:48+02:00</time>
      </trkpt>
      <trkpt lat="42.71381" lon="1.49016">
        <ele>1195</ele>
        <time>2016-07-03T17:00:00+02:00</time>
      </trkpt>
      <trkpt lat="42.71394" lon="1.49013">
        <ele>1194</ele>
        <time>2016-07-03T17:00:11+02:00</time>
      </trkpt>
      <trkpt lat="42.71407" lon="1.49016">
        <ele>1193</ele>
        <time>2016-07-03T17:00:21+02:00</time>
      </trkpt>
      <trkpt lat="42.71427" lon="1.49009">
        <ele>1190</ele>
        <time>2016-07-03T17:00:38+02:00</time>
      </trkpt>
      <trkpt lat="42.71444" lon="1.48993">
        <ele>1187</ele>
        <time>2016-07-03T17:00:56+02:00</time>
      </trkpt>
      <trkpt lat="42.71452" lon="1.48986">
        <ele>1186</ele>
        <time>2016-07-03T17:01:16+02:00</time>
      </trkpt>
      <trkpt lat="42.7147" lon="1.48975">
        <ele>1184</ele>
        <time>2016-07-03T17:01:33+02:00</time>
      </trkpt>
      <trkpt lat="42.71478" lon="1.4897">
        <ele>1183</ele>
        <time>2016-07-03T17:01:40+02:00</time>
      </trkpt>
      <trkpt lat="42.71493" lon="1.48976">
        <ele>1183</ele>
        <time>2016-07-03T17:01:53+02:00</time>
      </trkpt>
      <trkpt lat="42.71506" lon="1.48982">
        <ele>1184</ele>
        <time>2016-07-03T17:02:05+02:00</time>
      </trkpt>
      <trkpt lat="42.71518" lon="1.48989">
        <ele>1186</ele>
        <time>2016-07-03T17:02:17+02:00</time>
      </trkpt>
      <trkpt lat="42.71535" lon="1.48993">
        <ele>1190</ele>
        <time>2016-07-03T17:02:32+02:00</time>
      </trkpt>
      <trkpt lat="42.7154" lon="1.48991">
        <ele>1190</ele>
        <time>2016-07-03T17:02:37+02:00</time>
      </trkpt>
      <trkpt lat="42.7156" lon="1.48981">
        <ele>1190</ele>
        <time>2016-07-03T17:02:54+02:00</time>
      </trkpt>
      <trkpt lat="42.71571" lon="1.48963">
        <ele>1185</ele>
        <time>2016-07-03T17:03:09+02:00</time>
      </trkpt>
      <trkpt lat="42.71582" lon="1.48954">
        <ele>1181</ele>
        <time>2016-07-03T17:03:20+02:00</time>
      </trkpt>
      <trkpt lat="42.71597" lon="1.48944">
        <ele>1180</ele>
        <time>2016-07-03T17:03:33+02:00</time>
      </trkpt>
      <trkpt lat="42.7161" lon="1.48936">
        <ele>1178</ele>
        <time>2016-07-03T17:03:44+02:00</time>
      </trkpt>
      <trkpt lat="42.71623" lon="1.48927">
        <ele>1176</ele>
        <time>2016-07-03T17:03:56+02:00</time>
      </trkpt>
      <trkpt lat="42.71632" lon="1.4892">
        <ele>1173</ele>
        <time>2016-07-03T17:04:05+02:00</time>
      </trkpt>
      <trkpt lat="42.71651" lon="1.48905">
        <ele>1171</ele>
        <time>2016-07-03T17:04:23+02:00</time>
      </trkpt>
      <trkpt lat="42.71656" lon="1.48899">
        <ele>1170</ele>
        <time>2016-07-03T17:04:28+02:00</time>
      </trkpt>
      <trkpt lat="42.71672" lon="1.48884">
        <ele>1168</ele>
        <time>2016-07-03T17:04:44+02:00</time>
      </trkpt>
      <trkpt lat="42.71688" lon="1.4887">
        <ele>1166</ele>
        <time>2016-07-03T17:05:00+02:00</time>
      </trkpt>
      <trkpt lat="42.71707" lon="1.48854">
        <ele>1163</ele>
        <time>2016-07-03T17:05:27+02:00</time>
      </trkpt>
      <trkpt lat="42.71725" lon="1.48841">
        <ele>1161</ele>
        <time>2016-07-03T17:05:46+02:00</time>
      </trkpt>
      <trkpt lat="42.71745" lon="1.48833">
        <ele>1160</ele>
        <time>2016-07-03T17:06:06+02:00</time>
      </trkpt>
      <trkpt lat="42.71733" lon="1.48812">
        <ele>1158</ele>
        <time>2016-07-03T17:07:07+02:00</time>
      </trkpt>
      <trkpt lat="42.71725" lon="1.48805">
        <ele>1158</ele>
        <time>2016-07-03T17:07:17+02:00</time>
      </trkpt>
      <trkpt lat="42.71709" lon="1.48804">
        <ele>1157</ele>
        <time>2016-07-03T17:07:30+02:00</time>
      </trkpt>
      <trkpt lat="42.71708" lon="1.48776">
        <ele>1156</ele>
        <time>2016-07-03T17:09:19+02:00</time>
      </trkpt>
      <trkpt lat="42.71723" lon="1.48775">
        <ele>1156</ele>
        <time>2016-07-03T17:09:33+02:00</time>
      </trkpt>
      <trkpt lat="42.71737" lon="1.48777">
        <ele>1157</ele>
        <time>2016-07-03T17:10:13+02:00</time>
      </trkpt>
    </trkseg>
  </trk>
</gpx>